Terminal Aerodrome Forecast
Issued by NWS Grand Rapids, MI

Home | Current Version | Previous Version | Text Only | Print | Product List | Glossary On
Versions: 1 2 3 4 5 6 7 8 9 10 11 12 13
000
FTUS43 KGRR 030500
TAFGRR
TAF
KGRR 030540Z 0306/0406 19007KT P6SM SCT250
     FM031500 22012G22KT P6SM BKN100
     FM040400 19011KT P6SM OVC060=

USA.gov is the U.S. government's official web portal to all federal, state and local government web resources and services.